sensor_id;sensor_type;location;lat;lon;timestamp;P1;durP1;ratioP1;P2;durP2;ratioP2
7340;SDS011;6870;50.944;6.932;2024-01-30T00:00:15;10.40;;;4.80;;
7340;SDS011;6870;50.944;6.932;2024-01-30T00:02:44;12.80;;;4.87;;
7340;SDS011;6870;50.944;6.932;2024-01-30T00:05:12;5.00;;;4.40;;
7340;SDS011;6870;50.944;6.932;2024-01-30T00:07:42;5.63;;;4.20;;
7340;SDS011;6870;50.944;6.932;2024-01-30T00:10:10;5.03;;;4.53;;
7340;SDS011;6870;50.944;6.932;2024-01-30T00:12:38;5.97;;;4.20;;
7340;SDS011;6870;50.944;6.932;2024-01-30T00:15:06;5.90;;;4.47;;
7340;SDS011;6870;50.944;6.932;2024-01-30T00:17:36;6.30;;;4.70;;
7340;SDS011;6870;50.944;6.932;2024-01-30T00:20:04;7.03;;;4.40;;
7340;SDS011;6870;50.944;6.932;2024-01-30T00:22:35;5.77;;;5.00;;
7340;SDS011;6870;50.944;6.932;2024-01-30T00:25:05;5.97;;;4.77;;
7340;SDS011;6870;50.944;6.932;2024-01-30T00:27:33;6.10;;;4.23;;
7340;SDS011;6870;50.944;6.932;2024-01-30T00:30:02;5.67;;;4.67;;
7340;SDS011;6870;50.944;6.932;2024-01-30T00:32:31;6.80;;;4.70;;
7340;SDS011;6870;50.944;6.932;2024-01-30T00:34:59;4.70;;;4.30;;
7340;SDS011;6870;50.944;6.932;2024-01-30T00:37:28;4.30;;;3.33;;
7340;SDS011;6870;50.944;6.932;2024-01-30T00:39:57;6.10;;;4.30;;
7340;SDS011;6870;50.944;6.932;2024-01-30T00:42:27;4.73;;;3.83;;
7340;SDS011;6870;50.944;6.932;2024-01-30T00:44:55;5.50;;;3.80;;
7340;SDS011;6870;50.944;6.932;2024-01-30T00:47:23;4.90;;;4.33;;
7340;SDS011;6870;50.944;6.932;2024-01-30T00:49:51;6.37;;;4.40;;
7340;SDS011;6870;50.944;6.932;2024-01-30T00:52:19;5.03;;;3.60;;
7340;SDS011;6870;50.944;6.932;2024-01-30T00:54:47;7.60;;;4.70;;
7340;SDS011;6870;50.944;6.932;2024-01-30T00:57:15;5.93;;;4.40;;
7340;SDS011;6870;50.944;6.932;2024-01-30T00:59:45;5.77;;;5.17;;
7340;SDS011;6870;50.944;6.932;2024-01-30T01:02:13;14.47;;;4.90;;
7340;SDS011;6870;50.944;6.932;2024-01-30T01:04:43;6.40;;;4.40;;
7340;SDS011;6870;50.944;6.932;2024-01-30T01:07:11;5.87;;;4.20;;
7340;SDS011;6870;50.944;6.932;2024-01-30T01:09:40;5.00;;;3.90;;
7340;SDS011;6870;50.944;6.932;2024-01-30T01:12:08;5.07;;;4.13;;
7340;SDS011;6870;50.944;6.932;2024-01-30T01:14:36;4.97;;;3.63;;
7340;SDS011;6870;50.944;6.932;2024-01-30T01:17:05;6.50;;;3.90;;
7340;SDS011;6870;50.944;6.932;2024-01-30T01:19:33;5.73;;;4.23;;
7340;SDS011;6870;50.944;6.932;2024-01-30T01:22:01;6.50;;;3.77;;
7340;SDS011;6870;50.944;6.932;2024-01-30T01:24:30;6.33;;;3.33;;
7340;SDS011;6870;50.944;6.932;2024-01-30T01:26:59;6.83;;;4.30;;
7340;SDS011;6870;50.944;6.932;2024-01-30T01:29:27;5.33;;;4.33;;
7340;SDS011;6870;50.944;6.932;2024-01-30T01:31:55;5.57;;;4.03;;
7340;SDS011;6870;50.944;6.932;2024-01-30T01:34:25;4.73;;;4.20;;
7340;SDS011;6870;50.944;6.932;2024-01-30T01:36:56;6.37;;;3.77;;
7340;SDS011;6870;50.944;6.932;2024-01-30T01:39:24;3.87;;;3.37;;
7340;SDS011;6870;50.944;6.932;2024-01-30T01:41:53;5.50;;;3.83;;
7340;SDS011;6870;50.944;6.932;2024-01-30T01:44:21;5.30;;;3.70;;
7340;SDS011;6870;50.944;6.932;2024-01-30T01:46:49;4.20;;;3.40;;
7340;SDS011;6870;50.944;6.932;2024-01-30T01:49:18;4.03;;;3.57;;
7340;SDS011;6870;50.944;6.932;2024-01-30T01:51:50;5.57;;;4.17;;
7340;SDS011;6870;50.944;6.932;2024-01-30T01:54:19;3.47;;;3.17;;
7340;SDS011;6870;50.944;6.932;2024-01-30T01:56:48;4.97;;;3.63;;
7340;SDS011;6870;50.944;6.932;2024-01-30T01:59:17;4.63;;;3.97;;
7340;SDS011;6870;50.944;6.932;2024-01-30T02:01:45;4.87;;;3.80;;
7340;SDS011;6870;50.944;6.932;2024-01-30T02:04:15;5.30;;;3.73;;
7340;SDS011;6870;50.944;6.932;2024-01-30T02:06:44;5.60;;;4.50;;
7340;SDS011;6870;50.944;6.932;2024-01-30T02:09:14;4.60;;;3.90;;
7340;SDS011;6870;50.944;6.932;2024-01-30T02:11:42;4.97;;;3.53;;
7340;SDS011;6870;50.944;6.932;2024-01-30T02:14:10;6.07;;;3.80;;
7340;SDS011;6870;50.944;6.932;2024-01-30T02:16:38;4.30;;;3.70;;
7340;SDS011;6870;50.944;6.932;2024-01-30T02:19:07;5.03;;;3.50;;
7340;SDS011;6870;50.944;6.932;2024-01-30T02:21:36;5.20;;;4.00;;
7340;SDS011;6870;50.944;6.932;2024-01-30T02:40:25;4.50;;;4.00;;
7340;SDS011;6870;50.944;6.932;2024-01-30T02:42:53;3.10;;;2.70;;
7340;SDS011;6870;50.944;6.932;2024-01-30T02:45:21;6.80;;;3.60;;
7340;SDS011;6870;50.944;6.932;2024-01-30T02:47:49;6.17;;;3.60;;
7340;SDS011;6870;50.944;6.932;2024-01-30T02:50:17;7.00;;;4.10;;
7340;SDS011;6870;50.944;6.932;2024-01-30T02:52:46;4.50;;;3.77;;
7340;SDS011;6870;50.944;6.932;2024-01-30T02:55:14;6.60;;;3.40;;
7340;SDS011;6870;50.944;6.932;2024-01-30T02:57:45;5.53;;;3.50;;
7340;SDS011;6870;50.944;6.932;2024-01-30T03:00:14;9.30;;;3.97;;
7340;SDS011;6870;50.944;6.932;2024-01-30T03:02:42;4.00;;;3.60;;
7340;SDS011;6870;50.944;6.932;2024-01-30T03:05:10;6.10;;;3.30;;
7340;SDS011;6870;50.944;6.932;2024-01-30T03:07:38;6.27;;;3.03;;
7340;SDS011;6870;50.944;6.932;2024-01-30T03:10:07;5.80;;;3.50;;
7340;SDS011;6870;50.944;6.932;2024-01-30T03:12:35;4.70;;;3.33;;
7340;SDS011;6870;50.944;6.932;2024-01-30T03:15:05;4.97;;;3.23;;
7340;SDS011;6870;50.944;6.932;2024-01-30T03:17:33;5.20;;;3.60;;
7340;SDS011;6870;50.944;6.932;2024-01-30T03:20:03;5.10;;;3.50;;
7340;SDS011;6870;50.944;6.932;2024-01-30T03:22:33;4.17;;;3.10;;
7340;SDS011;6870;50.944;6.932;2024-01-30T03:25:01;3.60;;;3.20;;
7340;SDS011;6870;50.944;6.932;2024-01-30T03:27:29;4.27;;;3.53;;
7340;SDS011;6870;50.944;6.932;2024-01-30T03:29:58;4.30;;;3.57;;
7340;SDS011;6870;50.944;6.932;2024-01-30T03:32:27;5.37;;;4.20;;
7340;SDS011;6870;50.944;6.932;2024-01-30T03:34:55;3.80;;;2.77;;
7340;SDS011;6870;50.944;6.932;2024-01-30T03:37:24;4.63;;;3.37;;
7340;SDS011;6870;50.944;6.932;2024-01-30T03:39:52;4.43;;;3.00;;
7340;SDS011;6870;50.944;6.932;2024-01-30T03:42:20;4.30;;;3.27;;
7340;SDS011;6870;50.944;6.932;2024-01-30T03:44:49;5.10;;;2.93;;
7340;SDS011;6870;50.944;6.932;2024-01-30T03:47:19;4.07;;;3.20;;
7340;SDS011;6870;50.944;6.932;2024-01-30T03:49:49;4.07;;;3.20;;
7340;SDS011;6870;50.944;6.932;2024-01-30T03:52:17;4.90;;;3.70;;
7340;SDS011;6870;50.944;6.932;2024-01-30T03:54:45;4.70;;;3.23;;
7340;SDS011;6870;50.944;6.932;2024-01-30T03:57:13;4.20;;;3.03;;
7340;SDS011;6870;50.944;6.932;2024-01-30T03:59:41;5.83;;;3.67;;
7340;SDS011;6870;50.944;6.932;2024-01-30T04:02:10;3.53;;;3.20;;
7340;SDS011;6870;50.944;6.932;2024-01-30T04:04:38;4.50;;;3.03;;
7340;SDS011;6870;50.944;6.932;2024-01-30T04:14:05;4.37;;;3.13;;
7340;SDS011;6870;50.944;6.932;2024-01-30T04:16:33;5.53;;;3.23;;
7340;SDS011;6870;50.944;6.932;2024-01-30T04:19:01;4.40;;;3.10;;
7340;SDS011;6870;50.944;6.932;2024-01-30T04:21:29;6.23;;;3.10;;
7340;SDS011;6870;50.944;6.932;2024-01-30T04:23:57;3.97;;;3.30;;
7340;SDS011;6870;50.944;6.932;2024-01-30T04:26:26;6.03;;;3.07;;
7340;SDS011;6870;50.944;6.932;2024-01-30T04:28:55;3.27;;;2.97;;
7340;SDS011;6870;50.944;6.932;2024-01-30T04:31:23;3.97;;;3.60;;
7340;SDS011;6870;50.944;6.932;2024-01-30T04:33:51;9.43;;;3.30;;
7340;SDS011;6870;50.944;6.932;2024-01-30T04:36:20;3.23;;;2.93;;
7340;SDS011;6870;50.944;6.932;2024-01-30T04:38:48;4.40;;;3.07;;
7340;SDS011;6870;50.944;6.932;2024-01-30T04:41:16;3.93;;;2.90;;
7340;SDS011;6870;50.944;6.932;2024-01-30T04:43:44;3.77;;;3.00;;
7340;SDS011;6870;50.944;6.932;2024-01-30T04:46:14;5.07;;;3.40;;
7340;SDS011;6870;50.944;6.932;2024-01-30T04:48:42;3.23;;;2.90;;
7340;SDS011;6870;50.944;6.932;2024-01-30T04:51:10;4.07;;;3.03;;
7340;SDS011;6870;50.944;6.932;2024-01-30T04:53:38;3.80;;;3.00;;
7340;SDS011;6870;50.944;6.932;2024-01-30T04:56:06;6.40;;;2.90;;
7340;SDS011;6870;50.944;6.932;2024-01-30T04:58:34;3.93;;;2.60;;
7340;SDS011;6870;50.944;6.932;2024-01-30T05:01:03;3.50;;;2.90;;
7340;SDS011;6870;50.944;6.932;2024-01-30T05:03:34;3.10;;;2.53;;
7340;SDS011;6870;50.944;6.932;2024-01-30T05:06:02;24.97;;;3.27;;
7340;SDS011;6870;50.944;6.932;2024-01-30T05:08:33;4.27;;;3.07;;
7340;SDS011;6870;50.944;6.932;2024-01-30T05:11:03;14.13;;;3.57;;
7340;SDS011;6870;50.944;6.932;2024-01-30T05:13:32;3.20;;;2.70;;
7340;SDS011;6870;50.944;6.932;2024-01-30T05:16:01;11.13;;;3.43;;
7340;SDS011;6870;50.944;6.932;2024-01-30T05:18:35;4.90;;;3.50;;
7340;SDS011;6870;50.944;6.932;2024-01-30T05:21:03;4.93;;;4.43;;
7340;SDS011;6870;50.944;6.932;2024-01-30T05:23:32;4.80;;;3.97;;
7340;SDS011;6870;50.944;6.932;2024-01-30T05:26:00;10.83;;;4.87;;
7340;SDS011;6870;50.944;6.932;2024-01-30T05:28:28;9.27;;;5.40;;
7340;SDS011;6870;50.944;6.932;2024-01-30T05:30:57;9.00;;;4.30;;
7340;SDS011;6870;50.944;6.932;2024-01-30T05:33:25;7.33;;;5.30;;
7340;SDS011;6870;50.944;6.932;2024-01-30T05:35:54;9.53;;;4.57;;
7340;SDS011;6870;50.944;6.932;2024-01-30T05:38:22;6.30;;;4.07;;
7340;SDS011;6870;50.944;6.932;2024-01-30T05:40:51;7.03;;;4.30;;
7340;SDS011;6870;50.944;6.932;2024-01-30T05:43:19;5.90;;;4.37;;
7340;SDS011;6870;50.944;6.932;2024-01-30T05:45:47;5.20;;;4.23;;
7340;SDS011;6870;50.944;6.932;2024-01-30T05:48:15;5.10;;;4.30;;
7340;SDS011;6870;50.944;6.932;2024-01-30T05:50:43;5.70;;;3.80;;
7340;SDS011;6870;50.944;6.932;2024-01-30T05:53:13;7.60;;;3.90;;
7340;SDS011;6870;50.944;6.932;2024-01-30T05:55:41;5.03;;;3.80;;
7340;SDS011;6870;50.944;6.932;2024-01-30T05:58:09;8.10;;;3.87;;
7340;SDS011;6870;50.944;6.932;2024-01-30T06:00:37;4.90;;;3.60;;
7340;SDS011;6870;50.944;6.932;2024-01-30T06:03:05;6.20;;;3.37;;
7340;SDS011;6870;50.944;6.932;2024-01-30T06:05:34;5.37;;;3.33;;
7340;SDS011;6870;50.944;6.932;2024-01-30T06:08:02;4.27;;;3.87;;
7340;SDS011;6870;50.944;6.932;2024-01-30T06:10:32;5.70;;;3.27;;
7340;SDS011;6870;50.944;6.932;2024-01-30T06:13:00;4.00;;;3.40;;
7340;SDS011;6870;50.944;6.932;2024-01-30T06:15:28;4.70;;;3.20;;
7340;SDS011;6870;50.944;6.932;2024-01-30T06:17:56;4.00;;;3.27;;
7340;SDS011;6870;50.944;6.932;2024-01-30T06:20:24;4.63;;;3.90;;
7340;SDS011;6870;50.944;6.932;2024-01-30T06:22:53;5.87;;;3.60;;
7340;SDS011;6870;50.944;6.932;2024-01-30T06:25:21;4.40;;;3.73;;
7340;SDS011;6870;50.944;6.932;2024-01-30T06:27:50;3.80;;;3.33;;
7340;SDS011;6870;50.944;6.932;2024-01-30T06:30:18;6.60;;;3.23;;
7340;SDS011;6870;50.944;6.932;2024-01-30T06:32:46;4.93;;;3.40;;
7340;SDS011;6870;50.944;6.932;2024-01-30T06:35:14;3.87;;;3.40;;
7340;SDS011;6870;50.944;6.932;2024-01-30T06:37:43;4.60;;;3.80;;
7340;SDS011;6870;50.944;6.932;2024-01-30T06:40:12;4.20;;;3.80;;
7340;SDS011;6870;50.944;6.932;2024-01-30T06:42:40;4.17;;;3.43;;
7340;SDS011;6870;50.944;6.932;2024-01-30T06:45:10;4.87;;;3.67;;
7340;SDS011;6870;50.944;6.932;2024-01-30T06:47:38;3.20;;;2.90;;
7340;SDS011;6870;50.944;6.932;2024-01-30T06:50:06;4.47;;;3.97;;
7340;SDS011;6870;50.944;6.932;2024-01-30T06:52:35;3.93;;;3.53;;
7340;SDS011;6870;50.944;6.932;2024-01-30T06:55:03;3.20;;;2.90;;
7340;SDS011;6870;50.944;6.932;2024-01-30T06:57:32;3.80;;;2.93;;
7340;SDS011;6870;50.944;6.932;2024-01-30T07:00:00;4.60;;;3.60;;
7340;SDS011;6870;50.944;6.932;2024-01-30T07:02:30;5.17;;;3.50;;
7340;SDS011;6870;50.944;6.932;2024-01-30T07:04:58;3.70;;;3.27;;
7340;SDS011;6870;50.944;6.932;2024-01-30T07:07:26;4.83;;;3.70;;
7340;SDS011;6870;50.944;6.932;2024-01-30T07:09:55;4.90;;;3.50;;
7340;SDS011;6870;50.944;6.932;2024-01-30T07:12:23;3.23;;;2.93;;
7340;SDS011;6870;50.944;6.932;2024-01-30T07:14:52;3.77;;;2.93;;
7340;SDS011;6870;50.944;6.932;2024-01-30T07:17:22;7.27;;;3.70;;
7340;SDS011;6870;50.944;6.932;2024-01-30T07:19:52;7.03;;;3.20;;
7340;SDS011;6870;50.944;6.932;2024-01-30T07:22:20;4.10;;;3.13;;
7340;SDS011;6870;50.944;6.932;2024-01-30T07:24:48;5.17;;;3.63;;
7340;SDS011;6870;50.944;6.932;2024-01-30T07:27:18;3.50;;;3.13;;
7340;SDS011;6870;50.944;6.932;2024-01-30T07:29:46;4.77;;;3.13;;
7340;SDS011;6870;50.944;6.932;2024-01-30T07:32:14;3.93;;;3.57;;
7340;SDS011;6870;50.944;6.932;2024-01-30T07:34:42;3.30;;;3.00;;
7340;SDS011;6870;50.944;6.932;2024-01-30T07:37:48;4.10;;;3.37;;
7340;SDS011;6870;50.944;6.932;2024-01-30T07:40:16;4.27;;;3.10;;
7340;SDS011;6870;50.944;6.932;2024-01-30T07:42:45;6.13;;;3.13;;
7340;SDS011;6870;50.944;6.932;2024-01-30T07:45:13;4.57;;;3.00;;
7340;SDS011;6870;50.944;6.932;2024-01-30T07:47:41;4.90;;;3.40;;
7340;SDS011;6870;50.944;6.932;2024-01-30T07:50:09;4.73;;;4.07;;
7340;SDS011;6870;50.944;6.932;2024-01-30T07:52:37;4.00;;;3.70;;
7340;SDS011;6870;50.944;6.932;2024-01-30T07:55:07;7.37;;;3.93;;
7340;SDS011;6870;50.944;6.932;2024-01-30T07:57:38;3.83;;;2.80;;
7340;SDS011;6870;50.944;6.932;2024-01-30T08:00:06;4.30;;;3.63;;
7340;SDS011;6870;50.944;6.932;2024-01-30T08:02:35;5.50;;;3.73;;
7340;SDS011;6870;50.944;6.932;2024-01-30T08:05:03;5.60;;;3.50;;
7340;SDS011;6870;50.944;6.932;2024-01-30T08:07:31;5.60;;;4.07;;
7340;SDS011;6870;50.944;6.932;2024-01-30T08:09:59;6.77;;;3.70;;
7340;SDS011;6870;50.944;6.932;2024-01-30T08:12:29;5.50;;;3.80;;
7340;SDS011;6870;50.944;6.932;2024-01-30T08:14:57;7.10;;;3.60;;
7340;SDS011;6870;50.944;6.932;2024-01-30T08:17:25;4.53;;;3.30;;
7340;SDS011;6870;50.944;6.932;2024-01-30T08:19:53;4.75;;;3.45;;
7340;SDS011;6870;50.944;6.932;2024-01-30T08:22:22;8.10;;;5.60;;
7340;SDS011;6870;50.944;6.932;2024-01-30T08:24:50;7.23;;;5.33;;
7340;SDS011;6870;50.944;6.932;2024-01-30T08:27:18;10.20;;;6.23;;
7340;SDS011;6870;50.944;6.932;2024-01-30T08:29:48;10.43;;;7.60;;
7340;SDS011;6870;50.944;6.932;2024-01-30T08:32:17;7.83;;;5.90;;
7340;SDS011;6870;50.944;6.932;2024-01-30T08:34:45;7.77;;;6.70;;
7340;SDS011;6870;50.944;6.932;2024-01-30T08:37:13;12.20;;;5.40;;
7340;SDS011;6870;50.944;6.932;2024-01-30T08:39:43;5.60;;;5.00;;
7340;SDS011;6870;50.944;6.932;2024-01-30T08:42:11;10.30;;;6.03;;
7340;SDS011;6870;50.944;6.932;2024-01-30T08:44:39;6.70;;;6.00;;
7340;SDS011;6870;50.944;6.932;2024-01-30T08:47:08;6.13;;;5.53;;
7340;SDS011;6870;50.944;6.932;2024-01-30T08:49:37;6.53;;;5.03;;
7340;SDS011;6870;50.944;6.932;2024-01-30T08:52:05;7.63;;;5.40;;
7340;SDS011;6870;50.944;6.932;2024-01-30T08:54:33;6.87;;;5.80;;
7340;SDS011;6870;50.944;6.932;2024-01-30T08:57:01;7.80;;;5.93;;
7340;SDS011;6870;50.944;6.932;2024-01-30T08:59:30;7.60;;;6.33;;
7340;SDS011;6870;50.944;6.932;2024-01-30T09:01:58;11.93;;;7.57;;
7340;SDS011;6870;50.944;6.932;2024-01-30T09:04:39;7.10;;;5.63;;
7340;SDS011;6870;50.944;6.932;2024-01-30T09:07:08;5.50;;;5.00;;
7340;SDS011;6870;50.944;6.932;2024-01-30T09:09:37;6.87;;;5.13;;
7340;SDS011;6870;50.944;6.932;2024-01-30T09:12:07;8.10;;;6.13;;
7340;SDS011;6870;50.944;6.932;2024-01-30T09:14:38;6.73;;;6.10;;
7340;SDS011;6870;50.944;6.932;2024-01-30T09:17:08;10.53;;;7.03;;
7340;SDS011;6870;50.944;6.932;2024-01-30T09:19:36;5.70;;;4.93;;
7340;SDS011;6870;50.944;6.932;2024-01-30T09:22:06;6.43;;;5.17;;
7340;SDS011;6870;50.944;6.932;2024-01-30T09:24:34;6.13;;;5.53;;
7340;SDS011;6870;50.944;6.932;2024-01-30T09:27:02;6.13;;;5.33;;
7340;SDS011;6870;50.944;6.932;2024-01-30T09:29:31;5.90;;;4.90;;
7340;SDS011;6870;50.944;6.932;2024-01-30T09:32:00;7.03;;;4.73;;
7340;SDS011;6870;50.944;6.932;2024-01-30T09:34:28;4.63;;;4.27;;
7340;SDS011;6870;50.944;6.932;2024-01-30T09:36:58;5.13;;;4.63;;
7340;SDS011;6870;50.944;6.932;2024-01-30T09:39:28;4.60;;;4.20;;
7340;SDS011;6870;50.944;6.932;2024-01-30T09:42:05;5.17;;;4.50;;
7340;SDS011;6870;50.944;6.932;2024-01-30T09:44:41;6.40;;;4.93;;
7340;SDS011;6870;50.944;6.932;2024-01-30T09:47:11;5.33;;;4.33;;
7340;SDS011;6870;50.944;6.932;2024-01-30T09:49:40;5.93;;;4.70;;
7340;SDS011;6870;50.944;6.932;2024-01-30T09:52:11;5.50;;;4.30;;
7340;SDS011;6870;50.944;6.932;2024-01-30T09:54:41;5.70;;;4.70;;
7340;SDS011;6870;50.944;6.932;2024-01-30T09:57:09;6.63;;;4.03;;
7340;SDS011;6870;50.944;6.932;2024-01-30T09:59:39;6.00;;;4.50;;
7340;SDS011;6870;50.944;6.932;2024-01-30T10:02:09;5.63;;;5.00;;
7340;SDS011;6870;50.944;6.932;2024-01-30T10:04:37;5.27;;;4.57;;
7340;SDS011;6870;50.944;6.932;2024-01-30T10:07:06;4.73;;;4.23;;
7340;SDS011;6870;50.944;6.932;2024-01-30T10:09:36;5.63;;;4.60;;
7340;SDS011;6870;50.944;6.932;2024-01-30T10:12:06;5.10;;;4.63;;
7340;SDS011;6870;50.944;6.932;2024-01-30T10:14:37;8.00;;;4.67;;
7340;SDS011;6870;50.944;6.932;2024-01-30T10:17:07;5.10;;;4.60;;
7340;SDS011;6870;50.944;6.932;2024-01-30T10:19:47;7.67;;;4.50;;
7340;SDS011;6870;50.944;6.932;2024-01-30T10:22:15;6.40;;;4.50;;
7340;SDS011;6870;50.944;6.932;2024-01-30T10:24:44;5.10;;;4.60;;
7340;SDS011;6870;50.944;6.932;2024-01-30T10:27:14;5.80;;;4.77;;
7340;SDS011;6870;50.944;6.932;2024-01-30T10:29:42;6.60;;;5.03;;
7340;SDS011;6870;50.944;6.932;2024-01-30T10:32:10;5.07;;;4.30;;
7340;SDS011;6870;50.944;6.932;2024-01-30T10:34:38;6.07;;;4.93;;
7340;SDS011;6870;50.944;6.932;2024-01-30T10:37:07;4.90;;;4.33;;
7340;SDS011;6870;50.944;6.932;2024-01-30T10:39:41;4.80;;;4.20;;
7340;SDS011;6870;50.944;6.932;2024-01-30T10:42:14;5.57;;;4.80;;
7340;SDS011;6870;50.944;6.932;2024-01-30T10:44:48;5.57;;;4.60;;
7340;SDS011;6870;50.944;6.932;2024-01-30T10:47:26;5.27;;;4.70;;
7340;SDS011;6870;50.944;6.932;2024-01-30T10:49:56;7.00;;;5.60;;
7340;SDS011;6870;50.944;6.932;2024-01-30T10:52:25;5.40;;;4.80;;
7340;SDS011;6870;50.944;6.932;2024-01-30T10:54:56;5.90;;;5.03;;
7340;SDS011;6870;50.944;6.932;2024-01-30T10:57:26;6.47;;;4.80;;
7340;SDS011;6870;50.944;6.932;2024-01-30T10:59:56;5.63;;;5.13;;
7340;SDS011;6870;50.944;6.932;2024-01-30T11:02:26;6.60;;;4.67;;
7340;SDS011;6870;50.944;6.932;2024-01-30T11:04:55;5.30;;;4.80;;
7340;SDS011;6870;50.944;6.932;2024-01-30T11:07:26;7.00;;;5.40;;
7340;SDS011;6870;50.944;6.932;2024-01-30T11:09:59;6.50;;;5.73;;
7340;SDS011;6870;50.944;6.932;2024-01-30T11:12:31;8.27;;;4.77;;
7340;SDS011;6870;50.944;6.932;2024-01-30T11:15:01;7.83;;;5.20;;
7340;SDS011;6870;50.944;6.932;2024-01-30T11:17:42;5.73;;;5.07;;
7340;SDS011;6870;50.944;6.932;2024-01-30T11:20:19;5.73;;;4.60;;
7340;SDS011;6870;50.944;6.932;2024-01-30T11:22:50;6.03;;;5.37;;
7340;SDS011;6870;50.944;6.932;2024-01-30T11:25:19;7.13;;;6.00;;
7340;SDS011;6870;50.944;6.932;2024-01-30T11:27:52;6.73;;;4.87;;
7340;SDS011;6870;50.944;6.932;2024-01-30T11:30:23;6.27;;;5.40;;
7340;SDS011;6870;50.944;6.932;2024-01-30T11:32:58;7.37;;;5.50;;
7340;SDS011;6870;50.944;6.932;2024-01-30T11:35:29;6.50;;;5.90;;
7340;SDS011;6870;50.944;6.932;2024-01-30T11:37:59;5.83;;;5.17;;
7340;SDS011;6870;50.944;6.932;2024-01-30T11:40:28;5.80;;;5.20;;
7340;SDS011;6870;50.944;6.932;2024-01-30T11:42:59;6.50;;;5.67;;
7340;SDS011;6870;50.944;6.932;2024-01-30T11:45:29;7.23;;;5.67;;
7340;SDS011;6870;50.944;6.932;2024-01-30T11:47:57;6.97;;;5.70;;
7340;SDS011;6870;50.944;6.932;2024-01-30T11:50:26;8.30;;;6.40;;
7340;SDS011;6870;50.944;6.932;2024-01-30T11:52:55;7.47;;;6.23;;
7340;SDS011;6870;50.944;6.932;2024-01-30T11:55:23;6.27;;;5.13;;
7340;SDS011;6870;50.944;6.932;2024-01-30T11:57:54;5.93;;;5.33;;
7340;SDS011;6870;50.944;6.932;2024-01-30T12:00:24;7.10;;;6.07;;
7340;SDS011;6870;50.944;6.932;2024-01-30T12:02:53;7.30;;;5.83;;
7340;SDS011;6870;50.944;6.932;2024-01-30T12:05:23;7.77;;;5.80;;
7340;SDS011;6870;50.944;6.932;2024-01-30T12:07:52;7.27;;;5.87;;
7340;SDS011;6870;50.944;6.932;2024-01-30T12:10:21;6.83;;;5.53;;
7340;SDS011;6870;50.944;6.932;2024-01-30T12:12:49;7.07;;;5.33;;
7340;SDS011;6870;50.944;6.932;2024-01-30T12:15:18;6.50;;;5.63;;
7340;SDS011;6870;50.944;6.932;2024-01-30T12:17:50;6.53;;;5.63;;
7340;SDS011;6870;50.944;6.932;2024-01-30T12:20:18;7.93;;;6.33;;
7340;SDS011;6870;50.944;6.932;2024-01-30T12:22:48;7.10;;;6.20;;
7340;SDS011;6870;50.944;6.932;2024-01-30T12:25:18;7.70;;;6.33;;
7340;SDS011;6870;50.944;6.932;2024-01-30T12:27:49;7.43;;;6.40;;
7340;SDS011;6870;50.944;6.932;2024-01-30T12:30:19;6.70;;;5.83;;
7340;SDS011;6870;50.944;6.932;2024-01-30T12:32:50;8.10;;;6.33;;
7340;SDS011;6870;50.944;6.932;2024-01-30T12:35:19;7.90;;;6.77;;
7340;SDS011;6870;50.944;6.932;2024-01-30T12:37:48;7.07;;;6.37;;
7340;SDS011;6870;50.944;6.932;2024-01-30T12:40:17;7.03;;;6.30;;
7340;SDS011;6870;50.944;6.932;2024-01-30T12:42:46;6.63;;;6.00;;
7340;SDS011;6870;50.944;6.932;2024-01-30T12:45:16;7.70;;;6.47;;
7340;SDS011;6870;50.944;6.932;2024-01-30T12:47:47;6.53;;;5.93;;
7340;SDS011;6870;50.944;6.932;2024-01-30T12:50:16;6.43;;;5.80;;
7340;SDS011;6870;50.944;6.932;2024-01-30T12:52:45;6.90;;;6.20;;
7340;SDS011;6870;50.944;6.932;2024-01-30T12:55:15;6.57;;;5.97;;
7340;SDS011;6870;50.944;6.932;2024-01-30T12:57:44;14.87;;;6.63;;
7340;SDS011;6870;50.944;6.932;2024-01-30T13:00:13;7.30;;;6.60;;
7340;SDS011;6870;50.944;6.932;2024-01-30T13:02:43;6.37;;;5.50;;
7340;SDS011;6870;50.944;6.932;2024-01-30T13:05:11;7.70;;;6.30;;
7340;SDS011;6870;50.944;6.932;2024-01-30T13:07:41;7.30;;;6.60;;
7340;SDS011;6870;50.944;6.932;2024-01-30T13:10:10;6.73;;;6.13;;
7340;SDS011;6870;50.944;6.932;2024-01-30T13:12:38;7.60;;;6.57;;
7340;SDS011;6870;50.944;6.932;2024-01-30T13:15:06;7.53;;;6.80;;
7340;SDS011;6870;50.944;6.932;2024-01-30T13:17:35;7.70;;;6.37;;
7340;SDS011;6870;50.944;6.932;2024-01-30T13:20:03;7.17;;;5.70;;
7340;SDS011;6870;50.944;6.932;2024-01-30T13:22:37;7.17;;;6.47;;
7340;SDS011;6870;50.944;6.932;2024-01-30T13:25:07;7.50;;;6.03;;
7340;SDS011;6870;50.944;6.932;2024-01-30T13:27:36;8.90;;;6.00;;
7340;SDS011;6870;50.944;6.932;2024-01-30T13:30:06;6.43;;;5.80;;
7340;SDS011;6870;50.944;6.932;2024-01-30T13:32:36;8.47;;;6.20;;
7340;SDS011;6870;50.944;6.932;2024-01-30T13:35:04;7.53;;;6.50;;
7340;SDS011;6870;50.944;6.932;2024-01-30T13:37:33;8.50;;;6.93;;
7340;SDS011;6870;50.944;6.932;2024-01-30T13:40:01;8.10;;;6.07;;
7340;SDS011;6870;50.944;6.932;2024-01-30T13:42:38;8.27;;;6.43;;
7340;SDS011;6870;50.944;6.932;2024-01-30T13:45:06;7.40;;;6.37;;
7340;SDS011;6870;50.944;6.932;2024-01-30T13:47:36;8.57;;;7.07;;
7340;SDS011;6870;50.944;6.932;2024-01-30T13:50:04;8.90;;;5.87;;
7340;SDS011;6870;50.944;6.932;2024-01-30T13:52:34;7.40;;;6.40;;
7340;SDS011;6870;50.944;6.932;2024-01-30T13:55:10;8.70;;;6.83;;
7340;SDS011;6870;50.944;6.932;2024-01-30T14:00:29;7.93;;;6.60;;
7340;SDS011;6870;50.944;6.932;2024-01-30T14:02:57;6.13;;;5.53;;
7340;SDS011;6870;50.944;6.932;2024-01-30T14:05:25;7.90;;;7.10;;
7340;SDS011;6870;50.944;6.932;2024-01-30T14:07:55;8.83;;;7.03;;
7340;SDS011;6870;50.944;6.932;2024-01-30T14:10:24;7.20;;;6.30;;
7340;SDS011;6870;50.944;6.932;2024-01-30T14:12:52;10.03;;;7.60;;
7340;SDS011;6870;50.944;6.932;2024-01-30T14:15:22;7.90;;;6.90;;
7340;SDS011;6870;50.944;6.932;2024-01-30T14:17:55;8.57;;;7.67;;
7340;SDS011;6870;50.944;6.932;2024-01-30T14:20:25;7.00;;;6.40;;
7340;SDS011;6870;50.944;6.932;2024-01-30T14:22:53;7.10;;;6.40;;
7340;SDS011;6870;50.944;6.932;2024-01-30T14:25:23;8.90;;;7.00;;
7340;SDS011;6870;50.944;6.932;2024-01-30T14:27:51;7.63;;;6.33;;
7340;SDS011;6870;50.944;6.932;2024-01-30T14:30:19;7.20;;;6.50;;
7340;SDS011;6870;50.944;6.932;2024-01-30T14:32:49;7.30;;;6.60;;
7340;SDS011;6870;50.944;6.932;2024-01-30T14:35:20;8.00;;;6.90;;
7340;SDS011;6870;50.944;6.932;2024-01-30T14:37:48;8.03;;;6.20;;
7340;SDS011;6870;50.944;6.932;2024-01-30T14:40:17;10.73;;;8.47;;
7340;SDS011;6870;50.944;6.932;2024-01-30T14:42:45;6.57;;;5.87;;
7340;SDS011;6870;50.944;6.932;2024-01-30T14:45:13;8.67;;;7.77;;
7340;SDS011;6870;50.944;6.932;2024-01-30T14:47:44;8.57;;;7.43;;
7340;SDS011;6870;50.944;6.932;2024-01-30T14:50:12;8.20;;;7.40;;
7340;SDS011;6870;50.944;6.932;2024-01-30T14:52:42;8.50;;;7.57;;
7340;SDS011;6870;50.944;6.932;2024-01-30T14:55:11;8.70;;;7.70;;
7340;SDS011;6870;50.944;6.932;2024-01-30T14:57:39;8.53;;;7.63;;
7340;SDS011;6870;50.944;6.932;2024-01-30T15:00:08;9.27;;;7.77;;
7340;SDS011;6870;50.944;6.932;2024-01-30T15:02:39;10.17;;;7.70;;
7340;SDS011;6870;50.944;6.932;2024-01-30T15:05:08;9.43;;;8.07;;
7340;SDS011;6870;50.944;6.932;2024-01-30T15:07:40;10.50;;;8.93;;
7340;SDS011;6870;50.944;6.932;2024-01-30T15:10:11;10.70;;;8.97;;
7340;SDS011;6870;50.944;6.932;2024-01-30T15:12:40;10.10;;;9.10;;
7340;SDS011;6870;50.944;6.932;2024-01-30T15:15:08;9.37;;;8.37;;
7340;SDS011;6870;50.944;6.932;2024-01-30T15:17:37;10.57;;;8.43;;
7340;SDS011;6870;50.944;6.932;2024-01-30T15:20:06;10.03;;;8.77;;
7340;SDS011;6870;50.944;6.932;2024-01-30T15:22:37;11.70;;;8.17;;
7340;SDS011;6870;50.944;6.932;2024-01-30T15:25:06;11.43;;;8.77;;
7340;SDS011;6870;50.944;6.932;2024-01-30T15:27:34;9.37;;;7.90;;
7340;SDS011;6870;50.944;6.932;2024-01-30T15:30:03;10.63;;;8.97;;
7340;SDS011;6870;50.944;6.932;2024-01-30T15:32:32;13.43;;;9.30;;
7340;SDS011;6870;50.944;6.932;2024-01-30T15:35:00;11.80;;;9.00;;
7340;SDS011;6870;50.944;6.932;2024-01-30T15:37:32;10.77;;;8.50;;
7340;SDS011;6870;50.944;6.932;2024-01-30T15:40:01;12.67;;;9.47;;
7340;SDS011;6870;50.944;6.932;2024-01-30T15:42:32;9.10;;;7.57;;
7340;SDS011;6870;50.944;6.932;2024-01-30T15:45:00;9.67;;;8.57;;
7340;SDS011;6870;50.944;6.932;2024-01-30T15:47:28;8.90;;;7.50;;
7340;SDS011;6870;50.944;6.932;2024-01-30T15:49:57;9.70;;;8.30;;
7340;SDS011;6870;50.944;6.932;2024-01-30T15:52:25;10.10;;;8.60;;